createdAt,value
2022-10-30T15:03:43.271Z,1.90
2022-10-30T15:55:26.695Z,2.08
2022-10-30T15:58:16.752Z,2.90
2022-10-30T16:01:03.301Z,2.03
2022-10-30T16:03:53.656Z,2.40
2022-10-30T16:06:39.150Z,2.70
2022-10-30T16:09:25.789Z,3.05
2022-10-30T16:12:12.723Z,2.75
2022-10-30T16:15:02.668Z,2.20
2022-10-30T16:17:50.760Z,2.50
2022-10-30T16:20:42.196Z,3.22
2022-10-30T16:23:29.358Z,2.90
2022-10-30T16:26:35.713Z,2.75
2022-10-30T16:29:26.111Z,2.35
2022-10-30T16:32:23.915Z,2.30
2022-10-30T16:35:11.173Z,2.40
2022-10-30T16:38:12.735Z,2.38
2022-10-30T16:40:58.290Z,2.10
2022-10-30T16:44:09.859Z,2.80
2022-10-30T16:47:16.282Z,3.00
2022-10-30T16:50:06.201Z,2.40
2022-10-30T16:52:51.642Z,2.37
2022-10-30T16:55:38.529Z,2.60
2022-10-30T16:58:27.844Z,2.70
2022-10-30T17:01:13.872Z,2.45
2022-10-30T17:04:00.122Z,2.67
2022-10-30T17:06:46.065Z,2.57
2022-10-30T17:09:37.065Z,2.75
2022-10-30T17:12:27.407Z,2.90
2022-10-30T17:15:14.456Z,2.50
2022-10-30T17:18:14.993Z,2.75
2022-10-30T17:21:06.253Z,2.83
2022-10-30T17:23:58.063Z,3.13
2022-10-30T17:26:53.244Z,2.65
2022-10-30T17:29:41.606Z,2.40
2022-10-30T17:32:43.110Z,2.63
2022-10-30T17:35:28.511Z,2.53
2022-10-30T17:38:13.947Z,2.78
2022-10-30T17:40:59.994Z,3.28
2022-10-30T17:43:51.483Z,2.70
2022-10-30T17:46:37.096Z,2.80
2022-10-30T17:49:26.113Z,2.38
2022-10-30T17:52:14.281Z,2.77
2022-10-30T17:55:01.772Z,2.35
2022-10-30T17:57:47.508Z,2.40
2022-10-30T18:00:33.095Z,2.45
2022-10-30T18:03:18.333Z,3.03
2022-10-30T18:06:05.544Z,2.55
2022-10-30T18:08:51.560Z,3.20
2022-10-30T18:11:37.867Z,2.70
2022-10-30T18:14:23.405Z,3.17
2022-10-30T18:17:10.097Z,3.67
2022-10-30T18:19:55.676Z,2.83
2022-10-30T18:22:41.337Z,3.57
2022-10-30T18:25:35.467Z,3.78
2022-10-30T18:28:20.878Z,4.63
2022-10-30T18:31:06.636Z,5.45
2022-10-30T18:33:52.392Z,5.38
2022-10-30T18:36:38.004Z,5.00
2022-10-30T18:39:23.420Z,4.78
2022-10-30T18:42:09.065Z,4.20
2022-10-30T18:44:54.407Z,4.88
2022-10-30T18:47:40.225Z,4.47
2022-10-30T18:50:26.093Z,4.33
2022-10-30T18:53:16.250Z,3.88
2022-10-30T18:56:01.730Z,3.50
2022-10-30T18:58:47.852Z,3.55
2022-10-30T19:01:33.569Z,2.55
2022-10-30T19:04:22.150Z,2.80
2022-10-30T19:07:08.474Z,2.90
2022-10-30T19:09:55.710Z,2.97
2022-10-30T19:12:51.421Z,2.78
2022-10-30T19:15:52.182Z,2.78
2022-10-30T19:18:40.646Z,3.05
2022-10-30T19:21:26.418Z,3.30
2022-10-30T19:24:15.320Z,2.50
2022-10-30T19:27:00.987Z,2.53
2022-10-30T19:29:46.278Z,2.40
2022-10-30T19:32:32.022Z,3.08
2022-10-30T19:35:19.132Z,2.75
2022-10-30T19:38:07.959Z,3.27
2022-10-30T19:40:54.375Z,3.17
2022-10-30T19:43:39.731Z,3.08
2022-10-30T19:46:25.039Z,3.50
2022-10-30T19:49:19.036Z,3.78
2022-10-30T19:52:06.660Z,3.22
2022-10-30T19:54:52.394Z,2.90
2022-10-30T19:57:37.999Z,3.37
2022-10-30T20:00:29.532Z,3.27
2022-10-30T20:03:15.692Z,3.03
2022-10-30T20:06:01.249Z,2.70
2022-10-30T20:08:46.997Z,3.15
2022-10-30T20:11:32.467Z,2.50
2022-10-30T20:14:17.767Z,2.78
2022-10-30T20:17:03.168Z,2.97
2022-10-30T20:19:48.456Z,2.95
2022-10-30T20:22:34.078Z,2.80
2022-10-30T20:25:21.346Z,2.63
2022-10-30T20:28:23.657Z,2.90
2022-10-30T20:31:12.122Z,2.38
2022-10-30T20:33:57.568Z,2.95
2022-10-30T20:36:43.191Z,2.63
2022-10-30T20:39:28.514Z,1.92
2022-10-30T20:42:16.940Z,2.05
2022-10-30T20:45:02.340Z,2.50
2022-10-30T20:47:48.201Z,2.30
2022-10-30T20:50:34.170Z,2.10
2022-10-30T20:53:19.550Z,2.30
2022-10-30T20:56:05.229Z,2.10
2022-10-30T20:58:51.438Z,2.00
2022-10-30T21:01:37.152Z,2.40
2022-10-30T21:04:22.572Z,2.75
2022-10-30T21:07:07.899Z,2.78
2022-10-30T21:09:53.396Z,3.33
2022-10-30T21:12:38.879Z,3.63
2022-10-30T21:15:24.375Z,3.60
2022-10-30T21:18:11.466Z,3.88
2022-10-30T21:21:08.207Z,3.58
2022-10-30T21:23:54.814Z,4.10
2022-10-30T21:26:39.990Z,3.87
2022-10-30T21:29:25.665Z,4.07
2022-10-30T21:32:12.273Z,3.40
2022-10-30T21:34:57.641Z,3.25
2022-10-30T21:37:43.344Z,2.90
2022-10-30T21:40:28.670Z,2.85
2022-10-30T21:43:13.966Z,3.25
2022-10-30T21:45:59.157Z,4.15
2022-10-30T21:48:44.867Z,2.25
2022-10-30T21:51:30.211Z,3.53
2022-10-30T21:54:16.047Z,2.60
2022-10-30T21:57:01.533Z,3.05
2022-10-30T21:59:47.142Z,3.38
2022-10-30T22:02:32.816Z,3.75
2022-10-30T22:05:17.990Z,3.53
